Time;durP1;ratioP1;P1;durP2;ratioP2;P2;SDS_P1;SDS_P2;PMS_P1;PMS_P2;Temp;Humidity;BMP_temperature;BMP_pressure;BME280_temperature;BME280_humidity;BME280_pressure;Samples;Min_cycle;Max_cycle;Signal;HPM_P1;HPM_P2
2022/06/16 00:00:53;;;;;;;3.95;3.55;;;;;;;20.28;60.08;98534.03;4130986;28;20205;-54
2022/06/16 00:02:54;;;;;;;4.82;4.15;;;;;;;20.21;60.21;98523.34;4137277;28;20705;-54
2022/06/16 00:04:56;;;;;;;4.85;3.80;;;;;;;20.12;60.53;98521.63;4131451;28;20268;-53
2022/06/16 00:06:59;;;;;;;3.92;3.63;;;;;;;20.13;60.49;98528.81;4122489;28;20797;-54
2022/06/16 00:09:01;;;;;;;4.10;3.70;;;;;;;20.11;60.46;98518.00;4137993;28;20212;-54
2022/06/16 00:11:19;;;;;;;4.45;4.05;;;;;;;20.10;60.31;98527.47;4121380;28;20210;-53
2022/06/16 00:13:21;;;;;;;4.20;3.80;;;;;;;20.04;60.50;98516.78;4133557;28;20675;-53
2022/06/16 00:15:27;;;;;;;4.50;4.20;;;;;;;20.02;60.34;98519.84;4136723;28;20213;-54
2022/06/16 00:17:29;;;;;;;3.92;3.53;;;;;;;20.02;60.23;98519.03;4140255;28;20209;-53
2022/06/16 00:19:31;;;;;;;5.55;3.80;;;;;;;20.03;60.57;98517.88;4125248;28;20206;-54
2022/06/16 00:21:32;;;;;;;4.13;3.80;;;;;;;20.00;60.57;98513.78;4119025;28;20206;-53
2022/06/16 00:23:34;;;;;;;4.95;3.30;;;;;;;19.98;60.46;98509.69;4128286;28;20241;-54
2022/06/16 00:25:39;;;;;;;3.92;3.63;;;;;;;19.98;60.56;98512.47;4118056;28;20209;-54
2022/06/16 00:27:41;;;;;;;4.00;3.63;;;;;;;19.93;60.77;98509.78;4123464;28;20623;-54
2022/06/16 00:29:43;;;;;;;4.43;4.13;;;;;;;19.87;60.87;98503.53;4120834;28;20697;-53
2022/06/16 00:31:45;;;;;;;5.18;3.83;;;;;;;19.83;60.83;98505.25;4120243;28;20218;-54
2022/06/16 00:33:47;;;;;;;4.10;3.70;;;;;;;19.87;60.60;98506.28;4120996;28;20218;-53
2022/06/16 00:35:49;;;;;;;6.15;3.25;;;;;;;19.90;60.66;98510.41;4135855;28;20621;-52
2022/06/16 00:37:51;;;;;;;5.13;3.63;;;;;;;19.91;60.73;98507.31;4138554;28;20205;-52
2022/06/16 00:39:52;;;;;;;4.30;3.60;;;;;;;19.92;60.65;98508.13;4120163;28;20237;-53
2022/06/16 00:41:55;;;;;;;4.00;3.47;;;;;;;19.90;60.63;98510.41;4120771;28;20206;-51
2022/06/16 00:44:16;;;;;;;6.68;4.03;;;;;;;19.86;60.65;98509.38;4125098;28;20598;-53
2022/06/16 00:46:19;;;;;;;5.88;5.38;;;;;;;19.82;60.61;98502.78;4140190;28;20209;-53
2022/06/16 00:48:36;;;;;;;5.18;4.80;;;;;;;19.80;60.71;98505.06;4124986;28;20683;-52
2022/06/16 00:50:37;;;;;;;5.15;4.22;;;;;;;19.77;60.84;98505.69;4126694;28;20703;-53
2022/06/16 00:52:40;;;;;;;4.05;3.72;;;;;;;19.75;60.81;98507.94;4127760;28;20202;-53
2022/06/16 00:55:07;;;;;;;4.43;4.00;;;;;;;19.71;60.88;98502.19;4124833;28;20221;-54
2022/06/16 00:57:13;;;;;;;4.45;4.15;;;;;;;19.67;60.87;98508.66;4123733;28;20541;-53
2022/06/16 00:59:15;;;;;;;4.70;4.35;;;;;;;19.62;60.98;98503.22;4118630;28;20211;-53
2022/06/16 01:01:21;;;;;;;4.57;4.18;;;;;;;19.58;61.21;98507.75;4122414;28;20626;-53
2022/06/16 01:05:43;;;;;;;5.20;4.80;;;;;;;19.50;61.40;98497.34;4141620;28;20269;-53
2022/06/16 01:07:46;;;;;;;6.20;4.50;;;;;;;19.44;61.62;98506.91;4122980;28;20226;-53
2022/06/16 01:09:48;;;;;;;5.13;4.70;;;;;;;19.43;61.77;98503.31;4137372;28;20217;-54
2022/06/16 01:15:04;;;;;;;5.68;5.18;;;;;;;19.34;61.71;98518.19;4139888;28;20591;-52
2022/06/16 01:17:15;;;;;;;6.00;5.50;;;;;;;19.28;62.07;98524.97;4115931;28;20304;-53
2022/06/16 01:19:37;;;;;;;8.43;4.95;;;;;;;19.19;62.28;98512.91;4125463;28;20208;-54
2022/06/16 01:21:44;;;;;;;6.07;5.55;;;;;;;19.09;62.52;98508.38;4124129;28;20293;-53
2022/06/16 01:24:13;;;;;;;5.25;4.75;;;;;;;18.98;62.83;98497.78;4125540;28;20317;-54
2022/06/16 01:26:53;;;;;;;5.78;5.28;;;;;;;18.98;62.59;98511.63;4124724;28;20206;-53
2022/06/16 01:29:17;;;;;;;4.75;4.38;;;;;;;19.01;62.57;98499.91;4096690;28;20376;-53
2022/06/16 01:31:26;;;;;;;6.63;5.53;;;;;;;19.01;62.54;98502.69;4110170;28;20232;-54
2022/06/16 01:33:35;;;;;;;4.70;4.30;;;;;;;18.97;62.82;98499.72;4124068;28;20237;-53
2022/06/16 01:36:02;;;;;;;5.40;4.90;;;;;;;18.91;62.84;98503.69;4114793;28;20202;-53
2022/06/16 01:38:09;;;;;;;6.72;4.90;;;;;;;18.92;62.82;98498.97;4138619;28;20209;-53
2022/06/16 01:40:26;;;;;;;5.55;4.93;;;;;;;18.91;62.76;98497.34;4139647;28;20200;-53
2022/06/16 01:42:41;;;;;;;5.70;5.20;;;;;;;18.88;62.63;98500.72;4139449;28;20653;-53
2022/06/16 01:45:00;;;;;;;5.93;5.40;;;;;;;18.84;63.00;98499.69;4124209;28;20230;-53
2022/06/16 01:47:08;;;;;;;9.48;5.15;;;;;;;18.77;63.16;98497.28;4124666;28;20215;-53
2022/06/16 01:49:18;;;;;;;4.70;4.13;;;;;;;18.74;63.39;98499.84;4136975;28;20220;-53
2022/06/16 01:51:36;;;;;;;4.85;4.43;;;;;;;18.69;63.47;98499.91;4140508;28;20223;-51
2022/06/16 01:54:03;;;;;;;5.35;4.85;;;;;;;18.59;63.84;98503.69;4140916;28;20222;-53
2022/06/16 01:56:08;;;;;;;5.13;4.72;;;;;;;18.56;63.95;98506.22;4141069;28;20213;-54
2022/06/16 01:58:17;;;;;;;5.82;4.22;;;;;;;18.52;63.72;98502.44;4137415;28;20217;-51
2022/06/16 02:00:22;;;;;;;4.80;4.40;;;;;;;18.50;63.58;98508.28;4126342;28;20689;-52
2022/06/16 02:02:26;;;;;;;4.55;4.15;;;;;;;18.52;63.60;98505.22;4125911;28;20226;-52
2022/06/16 02:04:48;;;;;;;5.15;4.68;;;;;;;18.54;63.66;98514.88;4126644;28;20234;-51
2022/06/16 02:06:53;;;;;;;4.05;3.75;;;;;;;18.56;63.66;98514.56;4141859;28;20259;-52
2022/06/16 02:08:58;;;;;;;6.15;4.93;;;;;;;18.56;63.48;98511.78;4119623;28;20210;-52
2022/06/16 02:11:09;;;;;;;4.97;4.47;;;;;;;18.55;63.54;98513.75;4124625;28;20218;-52
2022/06/16 02:13:14;;;;;;;4.43;4.13;;;;;;;18.54;63.57;98519.59;4127823;28;20651;-52
2022/06/16 02:15:24;;;;;;;4.13;3.88;;;;;;;18.51;63.58;98521.00;4122327;28;20209;-52
2022/06/16 02:17:26;;;;;;;5.40;5.10;;;;;;;18.49;63.82;98516.88;4140055;28;20201;-51
2022/06/16 02:19:28;;;;;;;5.97;4.15;;;;;;;18.50;63.83;98524.06;4135209;28;20572;-52
2022/06/16 02:21:39;;;;;;;7.30;4.90;;;;;;;18.48;63.90;98526.31;4126905;28;20213;-53
2022/06/16 02:23:41;;;;;;;5.00;4.63;;;;;;;18.46;63.77;98529.38;4124079;28;20217;-51
2022/06/16 02:25:45;;;;;;;4.15;3.85;;;;;;;18.43;64.04;98526.41;4136931;28;20312;-52
2022/06/16 02:27:46;;;;;;;4.43;4.03;;;;;;;18.42;64.17;98530.28;4124591;28;20636;-52
2022/06/16 02:29:48;;;;;;;4.97;4.65;;;;;;;18.40;63.73;98533.38;4130236;28;20203;-52
2022/06/16 02:31:57;;;;;;;4.55;4.13;;;;;;;18.38;64.08;98534.81;4106636;28;20275;-51
2022/06/16 02:34:18;;;;;;;5.88;5.03;;;;;;;18.36;64.16;98534.25;4140824;28;20583;-52
2022/06/16 02:36:54;;;;;;;4.85;4.43;;;;;;;18.33;63.78;98529.34;4139040;28;20210;-51
2022/06/16 02:39:35;;;;;;;3.88;3.58;;;;;;;18.30;63.96;98532.66;4113293;28;20210;-52
2022/06/16 02:41:43;;;;;;;4.25;3.95;;;;;;;18.23;64.03;98529.44;4125144;28;20234;-52
2022/06/16 02:43:45;;;;;;;6.60;4.55;;;;;;;18.18;64.16;98532.28;4108478;28;20295;-52
2022/06/16 02:46:06;;;;;;;9.95;5.10;;;;;;;18.13;64.33;98529.59;4123660;28;20221;-52
2022/06/16 02:48:28;;;;;;;4.72;4.32;;;;;;;18.07;64.48;98533.56;4126339;28;20301;-52
2022/06/16 02:50:32;;;;;;;5.68;5.15;;;;;;;18.00;64.73;98530.31;4114031;28;20694;-53
2022/06/16 02:52:39;;;;;;;5.18;4.10;;;;;;;18.00;64.70;98530.31;4137243;28;20206;-53
2022/06/16 02:54:40;;;;;;;5.43;4.88;;;;;;;17.98;65.00;98532.56;4123148;28;20233;-53
2022/06/16 02:56:55;;;;;;;4.68;3.92;;;;;;;17.94;64.71;98531.50;4120634;28;20214;-52
2022/06/16 02:59:02;;;;;;;5.28;4.93;;;;;;;17.95;64.93;98534.00;4136480;28;20206;-51
2022/06/16 03:01:05;;;;;;;4.85;4.55;;;;;;;17.92;65.32;98536.53;4123058;28;20206;-52
2022/06/16 03:03:19;;;;;;;4.22;3.92;;;;;;;17.89;65.36;98523.25;4109035;28;20210;-53
2022/06/16 03:05:21;;;;;;;5.85;5.03;;;;;;;17.88;64.85;98527.16;4137331;28;22118;-53
2022/06/16 03:07:24;;;;;;;7.15;4.57;;;;;;;17.85;65.12;98528.56;4123408;28;20579;-52
2022/06/16 03:09:26;;;;;;;4.72;4.32;;;;;;;17.84;65.11;98531.66;4120189;28;20681;-52
2022/06/16 03:11:28;;;;;;;8.50;5.53;;;;;;;17.80;64.92;98533.34;4137201;28;20247;-53
2022/06/16 03:13:31;;;;;;;4.65;4.25;;;;;;;17.80;65.26;98539.69;4120344;28;20230;-52
2022/06/16 03:15:33;;;;;;;4.72;4.30;;;;;;;17.79;65.45;98537.25;4114121;28;20202;-53
2022/06/16 03:17:36;;;;;;;5.55;5.15;;;;;;;17.61;66.22;98538.00;4135933;28;20210;-52
2022/06/16 03:19:38;;;;;;;5.68;5.18;;;;;;;17.64;65.70;98537.44;4118871;28;20210;-52
2022/06/16 03:21:40;;;;;;;5.82;5.43;;;;;;;17.66;65.84;98543.50;4101897;28;20218;-52
2022/06/16 03:23:41;;;;;;;5.53;5.13;;;;;;;17.66;65.67;98546.25;4138150;28;20229;-53
2022/06/16 03:25:43;;;;;;;5.85;5.35;;;;;;;17.64;66.01;98543.78;4123370;28;20640;-52
2022/06/16 03:27:45;;;;;;;5.72;5.22;;;;;;;17.66;65.99;98546.25;4122721;28;20312;-51
2022/06/16 03:29:47;;;;;;;11.55;5.88;;;;;;;17.65;65.89;98547.38;4125285;28;20198;-52
2022/06/16 03:31:48;;;;;;;6.32;4.93;;;;;;;17.66;65.86;98562.88;4123005;28;20205;-52
2022/06/16 03:33:50;;;;;;;5.40;5.00;;;;;;;17.66;65.85;98555.38;4121187;28;20257;-53
2022/06/16 03:35:52;;;;;;;6.20;5.60;;;;;;;17.64;65.96;98554.84;4119731;28;20274;-55
2022/06/16 03:37:54;;;;;;;5.40;5.00;;;;;;;17.66;65.76;98557.34;4117663;28;20202;-54
2022/06/16 03:39:55;;;;;;;5.45;5.00;;;;;;;17.71;65.69;98557.28;4124572;28;20205;-53
2022/06/16 03:41:57;;;;;;;4.75;4.40;;;;;;;17.70;65.44;98559.22;4118648;28;20221;-51
2022/06/16 03:43:59;;;;;;;4.88;4.53;;;;;;;17.70;65.45;98558.38;4120861;28;20265;-56
2022/06/16 03:46:00;;;;;;;4.88;4.43;;;;;;;17.63;65.60;98563.44;4113181;28;20230;-55
2022/06/16 03:48:03;;;;;;;5.63;5.22;;;;;;;17.58;65.59;98571.84;4114230;28;20810;-54
2022/06/16 03:50:06;;;;;;;4.82;4.43;;;;;;;17.53;65.88;98566.34;4136456;28;20201;-55
2022/06/16 03:52:08;;;;;;;5.30;4.90;;;;;;;17.52;66.05;98562.72;4118866;28;20245;-53
2022/06/16 03:54:11;;;;;;;5.10;4.65;;;;;;;17.49;65.96;98568.03;4112363;28;20233;-53
2022/06/16 03:56:13;;;;;;;5.30;4.80;;;;;;;17.51;65.81;98571.34;4132821;28;20205;-56
2022/06/16 03:58:15;;;;;;;4.47;4.18;;;;;;;17.37;66.49;98570.38;4101278;28;20225;-51
2022/06/16 04:00:20;;;;;;;4.05;3.75;;;;;;;17.46;66.34;98569.44;4119352;28;20209;-55
2022/06/16 04:02:22;;;;;;;4.78;4.45;;;;;;;17.40;66.94;98569.81;4118565;28;20210;-52
2022/06/16 04:04:23;;;;;;;4.45;3.38;;;;;;;17.48;66.44;98566.38;4128140;28;20236;-52
2022/06/16 04:06:30;;;;;;;4.32;3.92;;;;;;;17.49;66.10;98562.50;4119223;28;20703;-51
2022/06/16 04:08:32;;;;;;;5.40;4.47;;;;;;;17.50;66.27;98564.13;4132891;28;20261;-51
2022/06/16 04:10:34;;;;;;;4.57;4.28;;;;;;;17.53;66.25;98575.44;4121291;28;20652;-53
2022/06/16 04:12:35;;;;;;;4.53;4.22;;;;;;;17.55;66.24;98572.41;4119606;28;20774;-52
2022/06/16 04:14:37;;;;;;;4.78;4.38;;;;;;;17.42;66.54;98567.56;4118492;28;20230;-53
2022/06/16 04:16:45;;;;;;;5.50;4.10;;;;;;;17.47;66.25;98559.22;4117299;28;20198;-53
2022/06/16 04:18:47;;;;;;;12.80;4.78;;;;;;;17.48;66.03;98566.38;4134923;28;20205;-52
2022/06/16 04:20:49;;;;;;;4.30;4.00;;;;;;;17.51;66.04;98576.88;4128433;28;20218;-52
2022/06/16 04:22:58;;;;;;;3.67;3.38;;;;;;;17.57;65.97;98586.75;4132127;28;20212;-52
2022/06/16 04:25:00;;;;;;;4.32;3.92;;;;;;;17.64;65.74;98587.25;4132998;28;20291;-52
2022/06/16 04:27:02;;;;;;;4.88;4.47;;;;;;;17.65;65.67;98588.91;4115851;28;20687;-52
2022/06/16 04:29:05;;;;;;;4.38;3.95;;;;;;;17.67;65.40;98590.25;4114813;28;20207;-52
2022/06/16 04:31:06;;;;;;;3.70;3.40;;;;;;;17.71;65.59;98593.28;4110026;28;20211;-52
2022/06/16 04:33:09;;;;;;;3.97;3.67;;;;;;;17.73;65.67;98588.25;4119686;28;20547;-53
2022/06/16 04:35:11;;;;;;;5.40;4.25;;;;;;;17.74;65.79;98579.66;4130265;28;20201;-52
2022/06/16 04:37:12;;;;;;;4.65;4.35;;;;;;;17.74;65.57;98593.50;4133997;28;20210;-52
2022/06/16 04:39:14;;;;;;;4.60;3.97;;;;;;;17.73;65.51;98585.50;4135069;28;20214;-52
2022/06/16 04:41:16;;;;;;;3.97;3.67;;;;;;;17.74;65.47;98576.06;4130593;28;20512;-53
2022/06/16 04:43:19;;;;;;;4.13;3.83;;;;;;;17.77;65.64;98581.84;4113782;28;20237;-52
2022/06/16 04:45:22;;;;;;;4.57;4.18;;;;;;;17.80;65.39;98585.97;4130559;28;20234;-52
2022/06/16 04:47:25;;;;;;;5.43;5.03;;;;;;;17.78;65.50;98588.22;4120188;28;20218;-52
2022/06/16 04:49:27;;;;;;;4.93;4.53;;;;;;;17.81;65.53;98598.69;4120271;28;20261;-51
2022/06/16 04:51:28;;;;;;;4.97;4.57;;;;;;;17.77;65.74;98597.59;4135064;28;20202;-52
2022/06/16 04:53:31;;;;;;;5.30;4.88;;;;;;;17.78;65.66;98602.06;4119496;28;20253;-52
2022/06/16 04:55:34;;;;;;;5.65;4.95;;;;;;;17.76;65.67;98602.34;4136476;28;20198;-52
2022/06/16 04:57:36;;;;;;;4.88;4.47;;;;;;;17.76;65.56;98612.56;4136284;28;20216;-52
2022/06/16 04:59:38;;;;;;;4.45;4.15;;;;;;;17.73;66.07;98618.72;4121918;28;20223;-52
2022/06/16 05:01:40;;;;;;;5.03;4.60;;;;;;;17.75;65.92;98611.75;4133675;28;20245;-53
2022/06/16 05:03:42;;;;;;;4.63;4.10;;;;;;;17.78;65.62;98621.44;4119493;28;20242;-53
2022/06/16 05:05:48;;;;;;;4.75;4.45;;;;;;;17.80;65.86;98619.19;4131592;28;20225;-52
2022/06/16 05:07:50;;;;;;;4.63;4.22;;;;;;;17.85;65.44;98628.25;4120789;28;20222;-53
2022/06/16 05:09:52;;;;;;;4.82;4.47;;;;;;;17.95;65.07;98628.13;4134159;28;20209;-52
2022/06/16 05:11:54;;;;;;;4.60;4.30;;;;;;;17.96;65.08;98634.50;4131992;28;20212;-52
2022/06/16 05:13:57;;;;;;;5.53;4.57;;;;;;;18.00;65.09;98636.41;4133306;28;20599;-53
2022/06/16 05:15:59;;;;;;;5.68;4.43;;;;;;;18.08;64.96;98634.91;4131058;28;20206;-52
2022/06/16 05:18:02;;;;;;;5.57;5.18;;;;;;;18.15;64.80;98638.13;4120299;28;20285;-52
2022/06/16 05:20:04;;;;;;;5.72;5.25;;;;;;;18.26;64.73;98643.25;4131617;28;20228;-51
2022/06/16 05:22:07;;;;;;;6.07;5.10;;;;;;;18.30;64.64;98635.16;4131685;28;20291;-52
2022/06/16 05:24:09;;;;;;;6.38;5.80;;;;;;;18.36;64.71;98642.34;4133307;28;20225;-53
2022/06/16 05:26:12;;;;;;;5.85;5.43;;;;;;;18.43;64.35;98649.16;4134333;28;20367;-52
2022/06/16 05:28:13;;;;;;;5.90;5.30;;;;;;;18.57;63.83;98660.38;4120255;28;20203;-52
2022/06/16 05:30:15;;;;;;;4.50;4.20;;;;;;;18.66;63.26;98653.03;4123694;28;20206;-52
2022/06/16 05:32:17;;;;;;;3.65;3.40;;;;;;;18.82;63.00;98659.97;4124824;28;20237;-53
2022/06/16 05:34:19;;;;;;;5.32;4.85;;;;;;;18.91;62.72;98666.53;4131640;28;20225;-52
2022/06/16 05:36:21;;;;;;;4.82;4.40;;;;;;;19.08;63.21;98669.56;4140272;28;20619;-53
2022/06/16 05:38:23;;;;;;;4.78;4.25;;;;;;;19.09;63.46;98672.06;4125768;28;20206;-52
2022/06/16 05:40:25;;;;;;;5.43;4.90;;;;;;;19.02;64.57;98676.31;4135147;28;20255;-52
2022/06/16 05:42:27;;;;;;;5.65;4.35;;;;;;;19.20;64.46;98683.84;4136045;28;20214;-51
2022/06/16 05:44:29;;;;;;;4.78;4.47;;;;;;;19.21;64.23;98679.94;4126940;28;20270;-52
2022/06/16 05:46:31;;;;;;;5.50;5.10;;;;;;;19.13;64.18;98683.38;4136466;28;20229;-52
2022/06/16 05:48:33;;;;;;;5.10;4.55;;;;;;;19.19;63.80;98679.41;4136334;28;20220;-52
2022/06/16 05:50:35;;;;;;;5.25;4.75;;;;;;;19.34;64.26;98684.72;4137297;28;20279;-52
2022/06/16 05:52:37;;;;;;;4.95;4.45;;;;;;;19.44;63.09;98690.13;4125271;28;20637;-52
2022/06/16 05:54:39;;;;;;;6.57;4.22;;;;;;;19.42;63.17;98687.66;4125253;28;20233;-52
2022/06/16 05:56:40;;;;;;;4.22;3.92;;;;;;;19.34;63.59;98695.84;4120026;28;20241;-53
2022/06/16 05:58:42;;;;;;;4.78;4.38;;;;;;;19.45;63.12;98691.78;4122653;28;20206;-52
2022/06/16 06:00:44;;;;;;;4.32;3.92;;;;;;;19.63;62.91;98699.22;4122776;28;20214;-53
2022/06/16 06:02:47;;;;;;;15.77;3.92;;;;;;;19.91;62.48;98692.63;4119175;28;20677;-53
2022/06/16 06:04:50;;;;;;;4.45;3.58;;;;;;;20.10;61.90;98693.41;4133126;28;20317;-52
2022/06/16 06:06:53;;;;;;;5.90;3.42;;;;;;;20.40;61.31;98699.19;4135588;28;20271;-53
2022/06/16 06:18:21;;;;;;;4.72;2.60;;;;;;;21.21;58.25;98709.38;4122072;28;20209;-52
2022/06/16 06:20:23;;;;;;;3.22;2.25;;;;;;;21.20;57.86;98710.53;4122477;28;20218;-53
2022/06/16 06:22:24;;;;;;;3.53;2.47;;;;;;;21.39;57.94;98713.97;4135086;28;20259;-52
2022/06/16 06:24:28;;;;;;;3.15;2.35;;;;;;;21.42;56.99;98719.72;4121911;28;20699;-52
2022/06/16 06:26:30;;;;;;;4.55;2.88;;;;;;;21.66;57.33;98727.78;4135499;28;20229;-52
2022/06/16 06:28:32;;;;;;;18.90;2.60;;;;;;;21.72;56.69;98727.34;4123363;28;20221;-52
2022/06/16 06:30:34;;;;;;;4.07;2.20;;;;;;;21.85;56.78;98732.03;4116787;28;20260;-53
2022/06/16 06:32:36;;;;;;;3.38;2.53;;;;;;;22.01;56.48;98736.09;4114947;28;20226;-52
2022/06/16 06:34:37;;;;;;;3.15;2.22;;;;;;;22.21;56.38;98741.13;4121551;28;20225;-52
2022/06/16 06:36:39;;;;;;;3.33;2.10;;;;;;;22.21;56.17;98743.09;4121350;28;20239;-52
2022/06/16 06:38:41;;;;;;;5.43;2.25;;;;;;;22.39;55.67;98742.88;4138768;28;20201;-52
2022/06/16 06:40:42;;;;;;;3.40;2.10;;;;;;;22.05;55.15;98742.66;4121286;28;20205;-52
2022/06/16 06:42:44;;;;;;;2.30;2.10;;;;;;;22.18;55.20;98752.09;4122507;28;20221;-53
2022/06/16 06:44:46;;;;;;;3.85;2.60;;;;;;;22.33;55.62;98754.47;4136358;28;20258;-52
2022/06/16 06:46:48;;;;;;;3.78;1.88;;;;;;;22.50;55.40;98761.00;4137772;28;20637;-53
2022/06/16 06:48:50;;;;;;;2.80;2.58;;;;;;;22.75;54.58;98762.22;4136167;28;20215;-53
2022/06/16 06:50:51;;;;;;;4.28;2.00;;;;;;;22.83;54.41;98753.09;4118396;28;20261;-51
2022/06/16 06:52:53;;;;;;;2.95;2.47;;;;;;;22.93;53.63;98758.34;4122360;28;20667;-52
2022/06/16 06:54:55;;;;;;;3.42;2.03;;;;;;;23.01;53.96;98763.97;4125230;28;20311;-52
2022/06/16 06:56:57;;;;;;;4.38;2.17;;;;;;;23.12;53.99;98761.69;4135935;28;20292;-52
2022/06/16 06:59:02;;;;;;;2.88;1.75;;;;;;;23.17;53.05;98764.38;4117253;28;20241;-52
2022/06/16 07:01:06;;;;;;;3.65;1.73;;;;;;;23.17;53.21;98769.97;4135913;28;22221;-53
2022/06/16 07:03:08;;;;;;;3.35;2.00;;;;;;;23.39;53.36;98765.06;4120572;28;20210;-52
2022/06/16 07:05:11;;;;;;;8.90;2.00;;;;;;;23.35;52.19;98771.59;4135262;28;20236;-52
2022/06/16 07:07:22;;;;;;;3.55;2.10;;;;;;;23.49;52.52;98777.88;4132433;28;20666;-52
2022/06/16 07:09:24;;;;;;;2.75;1.50;;;;;;;23.67;51.98;98776.75;4110623;28;20207;-53
2022/06/16 07:11:26;;;;;;;3.85;1.60;;;;;;;23.79;52.06;98778.53;4134663;28;20205;-52
2022/06/16 07:13:28;;;;;;;4.95;1.80;;;;;;;24.01;51.56;98781.19;4122223;28;20307;-51
2022/06/16 07:15:30;;;;;;;2.05;1.55;;;;;;;24.11;51.36;98782.81;4123695;28;20629;-52
2022/06/16 07:17:31;;;;;;;3.38;1.55;;;;;;;24.08;50.17;98777.91;4118456;28;20216;-53
2022/06/16 07:19:35;;;;;;;3.85;2.17;;;;;;;24.15;51.11;98781.84;4120257;28;20214;-53
2022/06/16 07:21:37;;;;;;;3.90;1.92;;;;;;;24.38;50.40;98783.25;4118812;28;20209;-52
2022/06/16 07:23:39;;;;;;;5.38;1.92;;;;;;;24.48;50.01;98790.50;4121798;28;21128;-52
2022/06/16 07:25:48;;;;;;;1.50;1.38;;;;;;;24.64;50.25;98794.41;4136552;28;20307;-53
2022/06/16 07:27:53;;;;;;;2.47;1.70;;;;;;;24.76;49.60;98800.97;4135272;28;21823;-52
2022/06/16 07:29:55;;;;;;;3.58;2.17;;;;;;;24.74;49.99;98797.66;4124765;28;20297;-52
2022/06/16 07:31:58;;;;;;;3.25;2.15;;;;;;;24.92;49.21;98790.84;4120795;28;20680;-53
2022/06/16 07:34:00;;;;;;;9.55;2.85;;;;;;;25.03;49.76;98791.28;4124271;28;20221;-53
2022/06/16 07:36:01;;;;;;;7.15;1.75;;;;;;;24.94;49.23;98787.69;4134248;28;20615;-52
2022/06/16 07:38:03;;;;;;;3.22;1.90;;;;;;;25.10;48.82;98794.38;4134117;28;20209;-51
2022/06/16 07:40:06;;;;;;;2.88;1.38;;;;;;;25.17;48.49;98789.88;4118977;28;20253;-52
2022/06/16 07:42:09;;;;;;;3.22;1.52;;;;;;;25.31;48.38;98793.28;4135089;28;20243;-52
2022/06/16 07:44:13;;;;;;;1.65;1.38;;;;;;;25.35;48.45;98799.03;4136327;28;20328;-53
2022/06/16 07:46:15;;;;;;;3.72;1.50;;;;;;;25.36;48.23;98793.09;4117672;28;20312;-53
2022/06/16 07:48:17;;;;;;;7.30;1.48;;;;;;;25.40;48.47;98791.25;4120139;28;20292;-53
2022/06/16 07:50:19;;;;;;;9.75;2.00;;;;;;;25.50;47.75;98796.47;4106671;28;20210;-53
2022/06/16 07:52:21;;;;;;;11.07;1.77;;;;;;;25.81;47.02;98808.13;4134343;28;20209;-52
2022/06/16 07:54:23;;;;;;;4.88;2.40;;;;;;;25.68;47.53;98803.59;4135239;28;20278;-52
2022/06/16 07:56:45;;;;;;;7.10;1.65;;;;;;;25.46;45.54;98803.09;4132501;28;20231;-53
2022/06/16 07:58:48;;;;;;;6.80;1.60;;;;;;;25.71;47.01;98800.09;4133542;28;20592;-53
2022/06/16 08:00:49;;;;;;;3.33;1.23;;;;;;;25.63;46.24;98795.38;4119557;28;20746;-52
2022/06/16 08:02:53;;;;;;;1.58;1.20;;;;;;;25.42;44.96;98793.72;4117037;28;20292;-52
2022/06/16 08:04:56;;;;;;;1.88;1.42;;;;;;;25.92;45.60;98792.53;4114878;28;20234;-53
2022/06/16 08:07:00;;;;;;;2.95;2.05;;;;;;;25.96;45.91;98793.50;4120240;28;20221;-52
2022/06/16 08:09:05;;;;;;;3.30;1.52;;;;;;;26.13;45.14;98804.53;4134378;28;20216;-52
2022/06/16 08:12:03;;;;;;;3.63;1.60;;;;;;;26.12;45.05;98810.53;4120104;28;20225;-52
2022/06/16 08:13:29;;;;;;;5.97;2.03;;;;;;;26.26;43.75;98803.44;4133328;28;20264;-52
2022/06/16 08:15:31;;;;;;;5.03;1.85;;;;;;;26.15;43.67;98813.47;4120472;28;20205;-52
2022/06/16 08:17:35;;;;;;;4.00;1.83;;;;;;;26.20;43.88;98815.22;4119033;28;20208;-51
2022/06/16 08:19:37;;;;;;;7.18;2.45;;;;;;;26.33;43.69;98817.72;4127768;28;20296;-52
2022/06/16 08:21:39;;;;;;;2.13;1.33;;;;;;;26.38;43.79;98823.13;4133161;28;20210;-52
2022/06/16 08:23:41;;;;;;;3.13;1.50;;;;;;;26.59;44.05;98825.94;4120382;28;20257;-52
2022/06/16 08:25:44;;;;;;;2.65;1.50;;;;;;;26.65;43.62;98833.78;4120499;28;20364;-52
2022/06/16 08:27:48;;;;;;;5.25;1.98;;;;;;;26.63;43.81;98836.13;4131910;28;20201;-52
2022/06/16 08:29:50;;;;;;;3.65;1.40;;;;;;;26.81;43.87;98837.56;4129699;28;20213;-52
2022/06/16 08:31:52;;;;;;;4.72;1.60;;;;;;;26.72;43.02;98839.63;4114988;28;20209;-53
2022/06/16 08:33:55;;;;;;;4.78;1.67;;;;;;;26.93;43.11;98834.75;4119283;28;20233;-53
2022/06/16 08:35:57;;;;;;;6.20;1.25;;;;;;;26.81;41.99;98837.56;4121191;28;20582;-52
2022/06/16 08:37:59;;;;;;;4.28;1.95;;;;;;;27.04;42.38;98841.56;4113373;28;20619;-53
2022/06/16 08:40:01;;;;;;;3.72;1.50;;;;;;;27.10;42.55;98840.19;4121449;28;20210;-52
2022/06/16 08:42:39;;;;;;;3.10;1.70;;;;;;;27.09;42.62;98846.97;4121338;28;20206;-52
2022/06/16 08:44:42;;;;;;;12.25;2.25;;;;;;;27.11;41.85;98838.19;4133024;28;21081;-53
2022/06/16 08:47:05;;;;;;;10.63;1.92;;;;;;;26.90;42.81;98840.25;4101812;28;20277;-52
2022/06/16 08:49:13;;;;;;;3.33;1.48;;;;;;;27.15;42.81;98842.81;4120325;28;20284;-53
2022/06/16 08:51:36;;;;;;;5.50;1.27;;;;;;;27.44;42.29;98833.28;4118571;28;20209;-53
2022/06/16 08:53:48;;;;;;;4.88;1.55;;;;;;;27.45;41.73;98841.38;4133356;28;20319;-53
2022/06/16 08:56:04;;;;;;;4.93;1.67;;;;;;;27.65;41.93;98834.81;4118506;28;20206;-53
2022/06/16 08:58:08;;;;;;;13.63;2.10;;;;;;;27.84;42.45;98842.66;4120561;28;20269;-53
2022/06/16 09:00:20;;;;;;;8.82;1.35;;;;;;;27.90;41.59;98846.84;4118140;28;20264;-53
2022/06/16 09:02:40;;;;;;;8.93;2.00;;;;;;;28.03;41.30;98834.41;4136683;28;20266;-52
2022/06/16 09:04:50;;;;;;;2.70;1.55;;;;;;;28.26;40.22;98844.75;4138634;28;20673;-53
2022/06/16 09:06:52;;;;;;;8.48;2.17;;;;;;;27.74;40.60;98843.94;4109942;28;20210;-52
2022/06/16 09:09:14;;;;;;;4.85;1.65;;;;;;;28.08;41.43;98848.22;4124147;28;20956;-53
2022/06/16 09:11:15;;;;;;;2.25;1.80;;;;;;;27.95;40.19;98850.25;4114292;28;20259;-53
2022/06/16 09:13:32;;;;;;;6.07;2.33;;;;;;;27.70;40.22;98848.63;4126840;28;20283;-52
2022/06/16 09:15:55;;;;;;;4.78;1.70;;;;;;;28.06;41.37;98851.38;4138983;28;20240;-52
2022/06/16 09:18:25;;;;;;;3.60;1.90;;;;;;;28.28;40.89;98853.69;4124699;28;20261;-53
2022/06/16 09:20:41;;;;;;;4.55;1.50;;;;;;;28.50;41.11;98855.97;4120373;28;20213;-53
2022/06/16 09:23:09;;;;;;;3.53;1.52;;;;;;;28.72;40.67;98863.03;4119864;28;20285;-52
2022/06/16 09:25:30;;;;;;;8.32;1.27;;;;;;;28.52;39.37;98852.78;4133195;28;20571;-54
2022/06/16 09:27:39;;;;;;;4.60;1.38;;;;;;;28.70;38.96;98854.09;4137711;28;20290;-53
2022/06/16 09:29:46;;;;;;;10.38;1.60;;;;;;;28.85;38.86;98867.41;4121715;28;20201;-53
2022/06/16 09:31:54;;;;;;;3.30;1.10;;;;;;;28.98;38.42;98857.75;4119164;28;20205;-53
2022/06/16 09:34:21;;;;;;;3.55;1.20;;;;;;;29.14;38.26;98867.84;4123351;28;20252;-54
2022/06/16 09:36:27;;;;;;;2.55;1.02;;;;;;;29.03;37.94;98847.00;4135023;28;20200;-52
2022/06/16 09:38:36;;;;;;;2.70;1.33;;;;;;;29.17;39.20;98847.38;4138024;28;20209;-53
2022/06/16 09:40:44;;;;;;;2.97;1.55;;;;;;;29.47;38.16;98851.38;4134041;28;20276;-52
2022/06/16 09:42:54;;;;;;;3.08;1.25;;;;;;;29.43;35.76;98858.91;4134309;28;20232;-53
2022/06/16 09:45:27;;;;;;;7.03;1.42;;;;;;;29.56;37.28;98865.31;4134697;28;20347;-52
2022/06/16 09:47:35;;;;;;;4.47;1.98;;;;;;;29.61;36.50;98856.56;4122262;28;20249;-52
2022/06/16 09:50:01;;;;;;;4.25;1.48;;;;;;;29.65;36.77;98855.44;4120724;28;20277;-52
2022/06/16 09:52:22;;;;;;;3.38;1.30;;;;;;;29.75;35.85;98869.00;4120703;28;20667;-52
2022/06/16 09:54:40;;;;;;;4.07;2.17;;;;;;;29.77;34.65;98869.47;4119932;28;20660;-53
2022/06/16 09:56:49;;;;;;;4.22;2.40;;;;;;;29.62;36.22;98869.47;4118191;28;20210;-52
2022/06/16 09:58:55;;;;;;;4.30;1.50;;;;;;;29.97;36.07;98871.13;4135862;28;20205;-53
2022/06/16 10:01:10;;;;;;;2.50;1.02;;;;;;;30.07;36.07;98881.88;4123549;28;20201;-52
2022/06/16 10:03:29;;;;;;;2.45;1.33;;;;;;;29.93;35.76;98887.16;4136295;28;20193;-53
2022/06/16 10:05:37;;;;;;;1.50;1.20;;;;;;;30.26;34.62;98893.22;4136625;28;20239;-52
2022/06/16 10:07:56;;;;;;;8.95;1.70;;;;;;;30.23;34.02;98888.31;4137094;28;20629;-52
2022/06/16 10:10:05;;;;;;;27.73;1.60;;;;;;;30.22;34.02;98895.16;4139416;28;20235;-52